sensor_id;sensor_type;location;lat;lon;timestamp;temperature;humidity
42913;DHT22;50720;54.324;18.558;2022-10-15T00:00:48;8.80;99.90
42913;DHT22;50720;54.324;18.558;2022-10-15T00:03:31;8.70;99.90
42913;DHT22;50720;54.324;18.558;2022-10-15T00:06:03;8.70;99.90
42913;DHT22;50720;54.324;18.558;2022-10-15T00:08:33;8.60;99.90
42913;DHT22;50720;54.324;18.558;2022-10-15T00:11:05;8.60;99.90
42913;DHT22;50720;54.324;18.558;2022-10-15T00:13:35;8.50;99.90
42913;DHT22;50720;54.324;18.558;2022-10-15T00:16:07;8.50;99.90
42913;DHT22;50720;54.324;18.558;2022-10-15T00:18:38;8.50;99.90
42913;DHT22;50720;54.324;18.558;2022-10-15T00:21:10;8.60;99.90
42913;DHT22;50720;54.324;18.558;2022-10-15T00:23:39;8.60;99.90
42913;DHT22;50720;54.324;18.558;2022-10-15T00:26:12;8.60;99.90
42913;DHT22;50720;54.324;18.558;2022-10-15T00:28:42;8.60;99.90
42913;DHT22;50720;54.324;18.558;2022-10-15T00:31:14;8.60;99.90
42913;DHT22;50720;54.324;18.558;2022-10-15T00:33:45;8.60;99.90
42913;DHT22;50720;54.324;18.558;2022-10-15T00:36:16;8.60;99.90
42913;DHT22;50720;54.324;18.558;2022-10-15T00:38:46;8.70;99.90
42913;DHT22;50720;54.324;18.558;2022-10-15T00:41:18;8.80;99.90
42913;DHT22;50720;54.324;18.558;2022-10-15T00:43:49;8.90;99.90
42913;DHT22;50720;54.324;18.558;2022-10-15T00:46:25;9.00;99.90
42913;DHT22;50720;54.324;18.558;2022-10-15T00:48:59;9.00;99.90
42913;DHT22;50720;54.324;18.558;2022-10-15T00:51:37;9.10;99.90
42913;DHT22;50720;54.324;18.558;2022-10-15T00:54:08;9.10;99.90
42913;DHT22;50720;54.324;18.558;2022-10-15T00:56:41;9.20;99.90
42913;DHT22;50720;54.324;18.558;2022-10-15T00:59:12;9.20;99.90
42913;DHT22;50720;54.324;18.558;2022-10-15T01:01:42;9.40;99.90
42913;DHT22;50720;54.324;18.558;2022-10-15T01:04:14;9.40;99.90
42913;DHT22;50720;54.324;18.558;2022-10-15T01:06:46;9.50;99.90
42913;DHT22;50720;54.324;18.558;2022-10-15T01:09:15;9.60;99.90
42913;DHT22;50720;54.324;18.558;2022-10-15T01:11:47;9.60;99.90
42913;DHT22;50720;54.324;18.558;2022-10-15T01:14:34;9.70;99.90
42913;DHT22;50720;54.324;18.558;2022-10-15T01:17:13;9.70;99.90
42913;DHT22;50720;54.324;18.558;2022-10-15T01:20:36;9.70;99.90
42913;DHT22;50720;54.324;18.558;2022-10-15T01:23:48;9.70;99.90
42913;DHT22;50720;54.324;18.558;2022-10-15T01:29:50;9.70;99.90
42913;DHT22;50720;54.324;18.558;2022-10-15T01:32:24;9.70;99.90
42913;DHT22;50720;54.324;18.558;2022-10-15T01:34:59;9.60;99.90
42913;DHT22;50720;54.324;18.558;2022-10-15T01:37:36;9.60;99.90
42913;DHT22;50720;54.324;18.558;2022-10-15T01:40:11;9.60;99.90
42913;DHT22;50720;54.324;18.558;2022-10-15T01:42:45;9.60;99.90
42913;DHT22;50720;54.324;18.558;2022-10-15T01:45:20;9.60;99.90
42913;DHT22;50720;54.324;18.558;2022-10-15T01:47:56;9.50;99.90
42913;DHT22;50720;54.324;18.558;2022-10-15T01:50:28;9.50;99.90
42913;DHT22;50720;54.324;18.558;2022-10-15T01:53:00;9.50;99.90
42913;DHT22;50720;54.324;18.558;2022-10-15T01:55:32;9.40;99.90
42913;DHT22;50720;54.324;18.558;2022-10-15T01:58:04;9.50;99.90
42913;DHT22;50720;54.324;18.558;2022-10-15T02:00:33;9.40;99.90
42913;DHT22;50720;54.324;18.558;2022-10-15T02:03:04;9.40;99.90
42913;DHT22;50720;54.324;18.558;2022-10-15T02:05:38;9.40;99.90
42913;DHT22;50720;54.324;18.558;2022-10-15T02:08:18;9.50;99.90
42913;DHT22;50720;54.324;18.558;2022-10-15T02:10:52;9.50;99.90
42913;DHT22;50720;54.324;18.558;2022-10-15T02:13:26;9.50;99.90
42913;DHT22;50720;54.324;18.558;2022-10-15T02:16:05;9.50;99.90
42913;DHT22;50720;54.324;18.558;2022-10-15T02:18:41;9.50;99.90
42913;DHT22;50720;54.324;18.558;2022-10-15T02:21:16;9.50;99.90
42913;DHT22;50720;54.324;18.558;2022-10-15T02:23:52;9.50;99.90
42913;DHT22;50720;54.324;18.558;2022-10-15T02:26:24;9.50;99.90
42913;DHT22;50720;54.324;18.558;2022-10-15T02:28:57;9.50;99.90
42913;DHT22;50720;54.324;18.558;2022-10-15T02:31:30;9.40;99.90
42913;DHT22;50720;54.324;18.558;2022-10-15T02:34:05;9.40;99.90
42913;DHT22;50720;54.324;18.558;2022-10-15T02:36:38;9.40;99.90
42913;DHT22;50720;54.324;18.558;2022-10-15T02:39:10;9.40;99.90
42913;DHT22;50720;54.324;18.558;2022-10-15T02:41:41;9.30;99.90
42913;DHT22;50720;54.324;18.558;2022-10-15T02:44:11;9.30;99.90
42913;DHT22;50720;54.324;18.558;2022-10-15T02:46:40;9.30;99.90
42913;DHT22;50720;54.324;18.558;2022-10-15T02:49:12;9.30;99.90
42913;DHT22;50720;54.324;18.558;2022-10-15T02:51:41;9.40;99.90
42913;DHT22;50720;54.324;18.558;2022-10-15T02:54:11;9.40;99.90
42913;DHT22;50720;54.324;18.558;2022-10-15T02:56:40;9.40;99.90
42913;DHT22;50720;54.324;18.558;2022-10-15T02:59:10;9.40;99.90
42913;DHT22;50720;54.324;18.558;2022-10-15T03:01:40;9.40;99.90
42913;DHT22;50720;54.324;18.558;2022-10-15T03:04:11;9.40;99.90
42913;DHT22;50720;54.324;18.558;2022-10-15T03:06:41;9.40;99.90
42913;DHT22;50720;54.324;18.558;2022-10-15T03:09:10;9.40;99.90
42913;DHT22;50720;54.324;18.558;2022-10-15T03:11:40;9.40;99.90
42913;DHT22;50720;54.324;18.558;2022-10-15T03:14:10;9.40;99.90
42913;DHT22;50720;54.324;18.558;2022-10-15T03:16:39;9.40;99.90
42913;DHT22;50720;54.324;18.558;2022-10-15T03:19:09;9.40;99.90
42913;DHT22;50720;54.324;18.558;2022-10-15T03:21:40;9.40;99.90
42913;DHT22;50720;54.324;18.558;2022-10-15T03:24:10;9.40;99.90
42913;DHT22;50720;54.324;18.558;2022-10-15T03:26:40;9.30;99.90
42913;DHT22;50720;54.324;18.558;2022-10-15T03:29:09;9.40;99.90
42913;DHT22;50720;54.324;18.558;2022-10-15T03:31:39;9.40;99.90
42913;DHT22;50720;54.324;18.558;2022-10-15T03:34:09;9.40;99.90
42913;DHT22;50720;54.324;18.558;2022-10-15T03:36:40;9.40;99.90
42913;DHT22;50720;54.324;18.558;2022-10-15T03:39:10;9.40;99.90
42913;DHT22;50720;54.324;18.558;2022-10-15T03:41:39;9.40;99.90
42913;DHT22;50720;54.324;18.558;2022-10-15T03:44:13;9.40;99.90
42913;DHT22;50720;54.324;18.558;2022-10-15T03:46:43;9.40;99.90
42913;DHT22;50720;54.324;18.558;2022-10-15T03:49:12;9.40;99.90
42913;DHT22;50720;54.324;18.558;2022-10-15T03:51:44;9.40;99.90
42913;DHT22;50720;54.324;18.558;2022-10-15T03:54:13;9.40;99.90
42913;DHT22;50720;54.324;18.558;2022-10-15T03:56:43;9.50;99.90
42913;DHT22;50720;54.324;18.558;2022-10-15T03:59:12;9.50;99.90
42913;DHT22;50720;54.324;18.558;2022-10-15T04:01:43;9.50;99.90
42913;DHT22;50720;54.324;18.558;2022-10-15T04:04:13;9.50;99.90
42913;DHT22;50720;54.324;18.558;2022-10-15T04:06:43;9.40;99.90
42913;DHT22;50720;54.324;18.558;2022-10-15T04:09:15;9.40;99.90
42913;DHT22;50720;54.324;18.558;2022-10-15T04:11:44;9.40;99.90
42913;DHT22;50720;54.324;18.558;2022-10-15T04:14:14;9.40;99.90
42913;DHT22;50720;54.324;18.558;2022-10-15T04:16:44;9.40;99.90
42913;DHT22;50720;54.324;18.558;2022-10-15T04:19:13;9.40;99.90
42913;DHT22;50720;54.324;18.558;2022-10-15T04:21:44;9.30;99.90
42913;DHT22;50720;54.324;18.558;2022-10-15T04:24:14;9.30;99.90
42913;DHT22;50720;54.324;18.558;2022-10-15T04:26:43;9.30;99.90
42913;DHT22;50720;54.324;18.558;2022-10-15T04:29:13;9.30;99.90
42913;DHT22;50720;54.324;18.558;2022-10-15T04:31:43;9.30;99.90
42913;DHT22;50720;54.324;18.558;2022-10-15T04:34:12;9.30;99.90
42913;DHT22;50720;54.324;18.558;2022-10-15T04:36:42;9.30;99.90
42913;DHT22;50720;54.324;18.558;2022-10-15T04:39:13;9.30;99.90
42913;DHT22;50720;54.324;18.558;2022-10-15T04:41:42;9.30;99.90
42913;DHT22;50720;54.324;18.558;2022-10-15T04:44:12;9.30;99.90
42913;DHT22;50720;54.324;18.558;2022-10-15T04:46:41;9.30;99.90
42913;DHT22;50720;54.324;18.558;2022-10-15T04:49:11;9.20;99.90
42913;DHT22;50720;54.324;18.558;2022-10-15T04:51:40;9.30;99.90
42913;DHT22;50720;54.324;18.558;2022-10-15T04:54:10;9.20;99.90
42913;DHT22;50720;54.324;18.558;2022-10-15T04:56:41;9.20;99.90
42913;DHT22;50720;54.324;18.558;2022-10-15T04:59:10;9.20;99.90
42913;DHT22;50720;54.324;18.558;2022-10-15T05:01:39;9.20;99.90
42913;DHT22;50720;54.324;18.558;2022-10-15T05:04:09;9.20;99.90
42913;DHT22;50720;54.324;18.558;2022-10-15T05:06:40;9.20;99.90
42913;DHT22;50720;54.324;18.558;2022-10-15T05:09:12;9.20;99.90
42913;DHT22;50720;54.324;18.558;2022-10-15T05:11:44;9.10;99.90
42913;DHT22;50720;54.324;18.558;2022-10-15T05:14:13;9.10;99.90
42913;DHT22;50720;54.324;18.558;2022-10-15T05:16:43;9.20;99.90
42913;DHT22;50720;54.324;18.558;2022-10-15T05:19:13;9.20;99.90
42913;DHT22;50720;54.324;18.558;2022-10-15T05:21:44;9.20;99.90
42913;DHT22;50720;54.324;18.558;2022-10-15T05:24:13;9.20;99.90
42913;DHT22;50720;54.324;18.558;2022-10-15T05:26:44;9.20;99.90
42913;DHT22;50720;54.324;18.558;2022-10-15T05:29:14;9.30;99.90
42913;DHT22;50720;54.324;18.558;2022-10-15T05:31:43;9.30;99.90
42913;DHT22;50720;54.324;18.558;2022-10-15T05:34:12;9.30;99.90
42913;DHT22;50720;54.324;18.558;2022-10-15T05:36:42;9.30;99.90
42913;DHT22;50720;54.324;18.558;2022-10-15T05:39:11;9.30;99.90
42913;DHT22;50720;54.324;18.558;2022-10-15T05:41:42;9.30;99.90
42913;DHT22;50720;54.324;18.558;2022-10-15T05:44:12;9.40;99.90
42913;DHT22;50720;54.324;18.558;2022-10-15T05:46:42;9.40;99.90
42913;DHT22;50720;54.324;18.558;2022-10-15T05:49:11;9.40;99.90
42913;DHT22;50720;54.324;18.558;2022-10-15T05:51:41;9.40;99.90
42913;DHT22;50720;54.324;18.558;2022-10-15T05:54:10;9.50;99.90
42913;DHT22;50720;54.324;18.558;2022-10-15T05:56:40;9.50;99.90
42913;DHT22;50720;54.324;18.558;2022-10-15T05:59:11;9.60;99.90
42913;DHT22;50720;54.324;18.558;2022-10-15T06:01:41;9.60;99.90
42913;DHT22;50720;54.324;18.558;2022-10-15T06:04:13;9.70;99.90
42913;DHT22;50720;54.324;18.558;2022-10-15T06:06:44;9.70;99.90
42913;DHT22;50720;54.324;18.558;2022-10-15T06:09:13;9.70;99.90
42913;DHT22;50720;54.324;18.558;2022-10-15T06:11:43;9.80;99.90
42913;DHT22;50720;54.324;18.558;2022-10-15T06:14:14;9.80;99.90
42913;DHT22;50720;54.324;18.558;2022-10-15T06:16:43;9.80;99.90
42913;DHT22;50720;54.324;18.558;2022-10-15T06:19:17;9.80;99.90
42913;DHT22;50720;54.324;18.558;2022-10-15T06:21:47;9.80;99.90
42913;DHT22;50720;54.324;18.558;2022-10-15T06:24:16;9.90;99.90
42913;DHT22;50720;54.324;18.558;2022-10-15T06:26:46;9.90;99.90
42913;DHT22;50720;54.324;18.558;2022-10-15T06:29:16;9.90;99.90
42913;DHT22;50720;54.324;18.558;2022-10-15T06:31:46;9.90;99.90
42913;DHT22;50720;54.324;18.558;2022-10-15T06:34:16;9.90;99.90
42913;DHT22;50720;54.324;18.558;2022-10-15T06:36:45;9.90;99.90
42913;DHT22;50720;54.324;18.558;2022-10-15T06:39:15;9.90;99.90
42913;DHT22;50720;54.324;18.558;2022-10-15T06:41:45;9.90;99.90
42913;DHT22;50720;54.324;18.558;2022-10-15T06:44:15;9.90;99.90
42913;DHT22;50720;54.324;18.558;2022-10-15T06:46:46;10.00;99.90
42913;DHT22;50720;54.324;18.558;2022-10-15T06:49:15;10.10;99.90
42913;DHT22;50720;54.324;18.558;2022-10-15T06:51:44;10.10;99.90
42913;DHT22;50720;54.324;18.558;2022-10-15T06:54:14;10.00;99.90
42913;DHT22;50720;54.324;18.558;2022-10-15T06:56:43;10.00;99.90
42913;DHT22;50720;54.324;18.558;2022-10-15T06:59:13;10.10;99.90
42913;DHT22;50720;54.324;18.558;2022-10-15T07:01:44;10.10;99.90
42913;DHT22;50720;54.324;18.558;2022-10-15T07:04:13;10.20;99.90
42913;DHT22;50720;54.324;18.558;2022-10-15T07:06:42;10.30;99.90
42913;DHT22;50720;54.324;18.558;2022-10-15T07:09:12;10.30;99.90
42913;DHT22;50720;54.324;18.558;2022-10-15T07:11:41;10.30;99.90
42913;DHT22;50720;54.324;18.558;2022-10-15T07:14:11;10.50;99.90
42913;DHT22;50720;54.324;18.558;2022-10-15T07:16:41;10.50;99.90
42913;DHT22;50720;54.324;18.558;2022-10-15T07:19:11;10.50;99.90
42913;DHT22;50720;54.324;18.558;2022-10-15T07:21:41;10.50;99.90
42913;DHT22;50720;54.324;18.558;2022-10-15T07:24:11;10.60;99.90
42913;DHT22;50720;54.324;18.558;2022-10-15T07:26:40;10.70;99.90
42913;DHT22;50720;54.324;18.558;2022-10-15T07:29:10;10.80;99.90
42913;DHT22;50720;54.324;18.558;2022-10-15T07:31:40;11.00;99.90
42913;DHT22;50720;54.324;18.558;2022-10-15T07:34:17;11.10;99.90
42913;DHT22;50720;54.324;18.558;2022-10-15T07:36:46;11.20;99.90
42913;DHT22;50720;54.324;18.558;2022-10-15T07:39:16;11.20;99.90
42913;DHT22;50720;54.324;18.558;2022-10-15T07:41:46;11.30;99.90
42913;DHT22;50720;54.324;18.558;2022-10-15T07:44:15;11.40;99.90
42913;DHT22;50720;54.324;18.558;2022-10-15T07:46:46;11.50;99.90
42913;DHT22;50720;54.324;18.558;2022-10-15T07:49:17;11.70;99.90
42913;DHT22;50720;54.324;18.558;2022-10-15T07:51:46;11.70;99.90
42913;DHT22;50720;54.324;18.558;2022-10-15T07:54:19;11.80;99.90
42913;DHT22;50720;54.324;18.558;2022-10-15T07:56:50;11.80;99.90
42913;DHT22;50720;54.324;18.558;2022-10-15T07:59:19;12.00;99.90
42913;DHT22;50720;54.324;18.558;2022-10-15T08:01:50;12.10;99.90
42913;DHT22;50720;54.324;18.558;2022-10-15T08:04:20;12.00;99.90
42913;DHT22;50720;54.324;18.558;2022-10-15T08:06:50;12.10;99.90
42913;DHT22;50720;54.324;18.558;2022-10-15T08:09:20;12.00;99.90
42913;DHT22;50720;54.324;18.558;2022-10-15T08:11:49;12.20;99.90
42913;DHT22;50720;54.324;18.558;2022-10-15T08:14:19;12.10;99.90
42913;DHT22;50720;54.324;18.558;2022-10-15T08:16:48;12.10;99.90
42913;DHT22;50720;54.324;18.558;2022-10-15T08:19:20;12.30;99.90
42913;DHT22;50720;54.324;18.558;2022-10-15T08:21:49;12.30;99.90
42913;DHT22;50720;54.324;18.558;2022-10-15T08:24:19;12.20;99.90
42913;DHT22;50720;54.324;18.558;2022-10-15T08:26:48;12.10;99.90
42913;DHT22;50720;54.324;18.558;2022-10-15T08:29:18;12.10;99.90
42913;DHT22;50720;54.324;18.558;2022-10-15T08:31:47;12.10;99.90
42913;DHT22;50720;54.324;18.558;2022-10-15T08:34:18;12.10;99.90
42913;DHT22;50720;54.324;18.558;2022-10-15T08:36:48;12.00;99.90
42913;DHT22;50720;54.324;18.558;2022-10-15T08:39:18;12.10;99.90
42913;DHT22;50720;54.324;18.558;2022-10-15T08:41:50;12.10;99.90
42913;DHT22;50720;54.324;18.558;2022-10-15T08:44:24;12.10;99.90
42913;DHT22;50720;54.324;18.558;2022-10-15T08:46:58;12.10;99.90
42913;DHT22;50720;54.324;18.558;2022-10-15T08:49:37;12.20;99.90
42913;DHT22;50720;54.324;18.558;2022-10-15T08:52:17;12.30;99.90
42913;DHT22;50720;54.324;18.558;2022-10-15T08:54:50;12.40;99.90
42913;DHT22;50720;54.324;18.558;2022-10-15T08:57:27;12.60;99.90
42913;DHT22;50720;54.324;18.558;2022-10-15T09:00:12;12.80;99.90
42913;DHT22;50720;54.324;18.558;2022-10-15T09:02:47;13.00;99.90
42913;DHT22;50720;54.324;18.558;2022-10-15T09:05:26;13.30;99.90
42913;DHT22;50720;54.324;18.558;2022-10-15T09:08:04;13.40;99.90
42913;DHT22;50720;54.324;18.558;2022-10-15T09:10:42;13.50;99.90
42913;DHT22;50720;54.324;18.558;2022-10-15T09:13:20;13.60;99.90
42913;DHT22;50720;54.324;18.558;2022-10-15T09:15:55;13.70;99.90
42913;DHT22;50720;54.324;18.558;2022-10-15T09:18:27;13.90;99.90
42913;DHT22;50720;54.324;18.558;2022-10-15T09:20:59;14.10;99.90
42913;DHT22;50720;54.324;18.558;2022-10-15T09:23:33;14.20;99.90
42913;DHT22;50720;54.324;18.558;2022-10-15T09:26:14;14.20;99.90
42913;DHT22;50720;54.324;18.558;2022-10-15T09:28:48;14.30;99.90
42913;DHT22;50720;54.324;18.558;2022-10-15T09:31:22;14.50;99.90
42913;DHT22;50720;54.324;18.558;2022-10-15T09:33:56;14.50;99.90
42913;DHT22;50720;54.324;18.558;2022-10-15T09:36:35;14.60;99.90
42913;DHT22;50720;54.324;18.558;2022-10-15T09:42:12;14.60;99.90
42913;DHT22;50720;54.324;18.558;2022-10-15T09:44:46;14.30;99.90
42913;DHT22;50720;54.324;18.558;2022-10-15T09:47:22;14.20;99.90
42913;DHT22;50720;54.324;18.558;2022-10-15T09:49:52;14.10;99.90
42913;DHT22;50720;54.324;18.558;2022-10-15T09:52:31;14.10;99.90
42913;DHT22;50720;54.324;18.558;2022-10-15T09:55:08;14.10;99.90
42913;DHT22;50720;54.324;18.558;2022-10-15T09:57:40;14.10;99.90
42913;DHT22;50720;54.324;18.558;2022-10-15T10:00:10;14.00;99.90
42913;DHT22;50720;54.324;18.558;2022-10-15T10:02:42;14.00;99.90
42913;DHT22;50720;54.324;18.558;2022-10-15T10:05:19;13.80;99.90
42913;DHT22;50720;54.324;18.558;2022-10-15T10:08:07;13.80;99.90
42913;DHT22;50720;54.324;18.558;2022-10-15T10:10:39;13.90;99.90
42913;DHT22;50720;54.324;18.558;2022-10-15T10:13:22;13.80;99.90
42913;DHT22;50720;54.324;18.558;2022-10-15T10:15:54;13.80;99.90
42913;DHT22;50720;54.324;18.558;2022-10-15T10:18:26;13.70;99.90
42913;DHT22;50720;54.324;18.558;2022-10-15T10:20:57;13.70;99.90
42913;DHT22;50720;54.324;18.558;2022-10-15T10:23:32;13.70;99.90
42913;DHT22;50720;54.324;18.558;2022-10-15T10:26:05;13.80;99.90
42913;DHT22;50720;54.324;18.558;2022-10-15T10:28:39;13.80;99.90
42913;DHT22;50720;54.324;18.558;2022-10-15T10:31:11;13.70;99.90
42913;DHT22;50720;54.324;18.558;2022-10-15T10:33:44;13.80;99.90
42913;DHT22;50720;54.324;18.558;2022-10-15T10:36:23;13.60;99.90
42913;DHT22;50720;54.324;18.558;2022-10-15T10:38:56;13.70;99.90
42913;DHT22;50720;54.324;18.558;2022-10-15T10:41:47;13.80;99.90
42913;DHT22;50720;54.324;18.558;2022-10-15T10:44:20;13.90;99.90
42913;DHT22;50720;54.324;18.558;2022-10-15T10:47:11;14.00;99.90
42913;DHT22;50720;54.324;18.558;2022-10-15T10:49:42;13.90;99.90
42913;DHT22;50720;54.324;18.558;2022-10-15T10:52:19;14.00;99.90
42913;DHT22;50720;54.324;18.558;2022-10-15T10:54:59;14.00;99.90
42913;DHT22;50720;54.324;18.558;2022-10-15T10:57:39;14.00;99.90
42913;DHT22;50720;54.324;18.558;2022-10-15T11:00:14;13.90;99.90
42913;DHT22;50720;54.324;18.558;2022-10-15T11:02:45;13.90;99.90
42913;DHT22;50720;54.324;18.558;2022-10-15T11:05:16;14.00;99.90
42913;DHT22;50720;54.324;18.558;2022-10-15T11:07:56;13.90;99.90
42913;DHT22;50720;54.324;18.558;2022-10-15T11:10:31;13.90;99.90
42913;DHT22;50720;54.324;18.558;2022-10-15T11:13:16;13.80;99.90
42913;DHT22;50720;54.324;18.558;2022-10-15T11:15:58;13.80;99.90
42913;DHT22;50720;54.324;18.558;2022-10-15T11:18:47;13.70;99.90
42913;DHT22;50720;54.324;18.558;2022-10-15T11:21:27;13.90;99.90
42913;DHT22;50720;54.324;18.558;2022-10-15T11:24:14;14.10;99.90
42913;DHT22;50720;54.324;18.558;2022-10-15T11:26:55;14.20;99.90
42913;DHT22;50720;54.324;18.558;2022-10-15T11:29:53;14.20;99.90
42913;DHT22;50720;54.324;18.558;2022-10-15T11:32:37;14.30;99.90
42913;DHT22;50720;54.324;18.558;2022-10-15T11:35:35;14.30;99.90
42913;DHT22;50720;54.324;18.558;2022-10-15T11:38:27;14.30;99.90
42913;DHT22;50720;54.324;18.558;2022-10-15T11:41:24;14.30;99.90
42913;DHT22;50720;54.324;18.558;2022-10-15T11:44:13;14.40;99.90
42913;DHT22;50720;54.324;18.558;2022-10-15T11:46:54;14.60;99.90
42913;DHT22;50720;54.324;18.558;2022-10-15T11:49:35;14.50;99.90
42913;DHT22;50720;54.324;18.558;2022-10-15T11:52:18;14.50;99.90
42913;DHT22;50720;54.324;18.558;2022-10-15T11:54:59;14.70;99.90
42913;DHT22;50720;54.324;18.558;2022-10-15T11:57:32;14.80;99.90
42913;DHT22;50720;54.324;18.558;2022-10-15T12:00:08;15.10;99.90
42913;DHT22;50720;54.324;18.558;2022-10-15T12:02:44;15.20;99.90
42913;DHT22;50720;54.324;18.558;2022-10-15T12:05:19;15.20;99.90
42913;DHT22;50720;54.324;18.558;2022-10-15T12:07:54;15.20;99.90
42913;DHT22;50720;54.324;18.558;2022-10-15T12:10:34;15.20;99.90
42913;DHT22;50720;54.324;18.558;2022-10-15T12:13:09;15.40;99.90
42913;DHT22;50720;54.324;18.558;2022-10-15T12:15:49;15.40;99.90
42913;DHT22;50720;54.324;18.558;2022-10-15T12:18:30;15.40;99.90
42913;DHT22;50720;54.324;18.558;2022-10-15T12:21:32;15.40;99.90
42913;DHT22;50720;54.324;18.558;2022-10-15T12:24:03;15.50;99.90
42913;DHT22;50720;54.324;18.558;2022-10-15T12:26:37;15.50;99.90
42913;DHT22;50720;54.324;18.558;2022-10-15T12:29:20;15.60;99.90
42913;DHT22;50720;54.324;18.558;2022-10-15T12:31:51;15.50;99.90
42913;DHT22;50720;54.324;18.558;2022-10-15T12:34:39;15.60;99.90
42913;DHT22;50720;54.324;18.558;2022-10-15T12:37:16;15.80;99.90
42913;DHT22;50720;54.324;18.558;2022-10-15T12:39:53;15.90;99.90
42913;DHT22;50720;54.324;18.558;2022-10-15T12:42:26;16.20;99.90
42913;DHT22;50720;54.324;18.558;2022-10-15T12:44:58;16.40;99.90
42913;DHT22;50720;54.324;18.558;2022-10-15T12:47:49;16.60;99.90
42913;DHT22;50720;54.324;18.558;2022-10-15T12:50:23;16.70;99.90
42913;DHT22;50720;54.324;18.558;2022-10-15T12:52:59;16.40;99.90
42913;DHT22;50720;54.324;18.558;2022-10-15T12:55:30;16.30;99.90
42913;DHT22;50720;54.324;18.558;2022-10-15T12:58:10;16.30;99.90
42913;DHT22;50720;54.324;18.558;2022-10-15T13:00:55;16.20;99.90
42913;DHT22;50720;54.324;18.558;2022-10-15T13:03:35;16.00;99.90
42913;DHT22;50720;54.324;18.558;2022-10-15T13:06:13;16.10;99.90
42913;DHT22;50720;54.324;18.558;2022-10-15T13:08:45;16.20;99.90
42913;DHT22;50720;54.324;18.558;2022-10-15T13:11:20;16.20;99.90
42913;DHT22;50720;54.324;18.558;2022-10-15T13:13:55;16.00;99.90
42913;DHT22;50720;54.324;18.558;2022-10-15T13:16:27;16.10;99.90
42913;DHT22;50720;54.324;18.558;2022-10-15T13:18:57;16.00;99.90
42913;DHT22;50720;54.324;18.558;2022-10-15T13:21:50;16.00;99.90
42913;DHT22;50720;54.324;18.558;2022-10-15T13:24:22;15.90;99.90
42913;DHT22;50720;54.324;18.558;2022-10-15T13:26:52;15.70;99.90
42913;DHT22;50720;54.324;18.558;2022-10-15T13:29:25;15.40;99.90
42913;DHT22;50720;54.324;18.558;2022-10-15T13:31:55;15.30;99.90
42913;DHT22;50720;54.324;18.558;2022-10-15T13:34:28;15.20;99.90
42913;DHT22;50720;54.324;18.558;2022-10-15T13:37:01;15.20;99.90
42913;DHT22;50720;54.324;18.558;2022-10-15T13:39:32;15.20;99.90
42913;DHT22;50720;54.324;18.558;2022-10-15T13:42:08;15.00;99.90
42913;DHT22;50720;54.324;18.558;2022-10-15T13:44:38;15.00;99.90
42913;DHT22;50720;54.324;18.558;2022-10-15T13:47:24;15.00;99.90
42913;DHT22;50720;54.324;18.558;2022-10-15T13:50:09;15.00;99.90
42913;DHT22;50720;54.324;18.558;2022-10-15T13:52:42;15.00;99.90
42913;DHT22;50720;54.324;18.558;2022-10-15T13:55:19;15.00;99.90
42913;DHT22;50720;54.324;18.558;2022-10-15T13:57:50;15.00;99.90
42913;DHT22;50720;54.324;18.558;2022-10-15T14:00:26;15.00;99.90
42913;DHT22;50720;54.324;18.558;2022-10-15T14:03:07;15.00;99.90
42913;DHT22;50720;54.324;18.558;2022-10-15T14:05:37;15.10;99.90
42913;DHT22;50720;54.324;18.558;2022-10-15T14:08:14;15.10;99.90
42913;DHT22;50720;54.324;18.558;2022-10-15T14:10:45;15.10;99.90
42913;DHT22;50720;54.324;18.558;2022-10-15T14:13:14;15.10;99.90
42913;DHT22;50720;54.324;18.558;2022-10-15T14:18:42;15.20;99.90
42913;DHT22;50720;54.324;18.558;2022-10-15T14:21:17;15.20;99.90
42913;DHT22;50720;54.324;18.558;2022-10-15T14:23:49;15.20;99.90
42913;DHT22;50720;54.324;18.558;2022-10-15T14:26:23;15.20;99.90
42913;DHT22;50720;54.324;18.558;2022-10-15T14:28:52;15.20;99.90
42913;DHT22;50720;54.324;18.558;2022-10-15T14:31:30;15.10;99.90
42913;DHT22;50720;54.324;18.558;2022-10-15T14:34:00;15.10;99.90
42913;DHT22;50720;54.324;18.558;2022-10-15T14:36:31;15.00;99.90
42913;DHT22;50720;54.324;18.558;2022-10-15T14:39:28;15.00;99.90
42913;DHT22;50720;54.324;18.558;2022-10-15T14:42:00;14.90;99.90
42913;DHT22;50720;54.324;18.558;2022-10-15T14:44:43;15.00;99.90
42913;DHT22;50720;54.324;18.558;2022-10-15T14:47:18;14.90;99.90
42913;DHT22;50720;54.324;18.558;2022-10-15T14:49:51;14.90;99.90
42913;DHT22;50720;54.324;18.558;2022-10-15T14:52:22;14.80;99.90
42913;DHT22;50720;54.324;18.558;2022-10-15T14:55:00;14.70;99.90
42913;DHT22;50720;54.324;18.558;2022-10-15T14:57:34;14.70;99.90
42913;DHT22;50720;54.324;18.558;2022-10-15T15:00:12;14.80;99.90
42913;DHT22;50720;54.324;18.558;2022-10-15T15:02:42;14.70;99.90
42913;DHT22;50720;54.324;18.558;2022-10-15T15:05:19;14.70;99.90
42913;DHT22;50720;54.324;18.558;2022-10-15T15:07:50;14.70;99.90
42913;DHT22;50720;54.324;18.558;2022-10-15T15:10:22;14.70;99.90
42913;DHT22;50720;54.324;18.558;2022-10-15T15:12:53;14.70;99.90
42913;DHT22;50720;54.324;18.558;2022-10-15T15:15:23;14.70;99.90
42913;DHT22;50720;54.324;18.558;2022-10-15T15:17:53;14.70;99.90
42913;DHT22;50720;54.324;18.558;2022-10-15T15:20:23;14.70;99.90
42913;DHT22;50720;54.324;18.558;2022-10-15T15:22:54;14.70;99.90
42913;DHT22;50720;54.324;18.558;2022-10-15T15:25:28;14.70;99.90
42913;DHT22;50720;54.324;18.558;2022-10-15T15:27:58;14.60;99.90
42913;DHT22;50720;54.324;18.558;2022-10-15T15:30:30;14.60;99.90
42913;DHT22;50720;54.324;18.558;2022-10-15T15:33:01;14.50;99.90
42913;DHT22;50720;54.324;18.558;2022-10-15T15:35:38;14.60;99.90
42913;DHT22;50720;54.324;18.558;2022-10-15T15:38:11;14.50;99.90
42913;DHT22;50720;54.324;18.558;2022-10-15T15:40:42;14.40;99.90
42913;DHT22;50720;54.324;18.558;2022-10-15T15:43:13;14.40;99.90
42913;DHT22;50720;54.324;18.558;2022-10-15T15:45:42;14.30;99.90
42913;DHT22;50720;54.324;18.558;2022-10-15T15:48:15;14.40;99.90
42913;DHT22;50720;54.324;18.558;2022-10-15T15:50:46;14.40;99.90
42913;DHT22;50720;54.324;18.558;2022-10-15T15:53:15;14.40;99.90
42913;DHT22;50720;54.324;18.558;2022-10-15T15:55:46;14.30;99.90
42913;DHT22;50720;54.324;18.558;2022-10-15T15:58:16;14.40;99.90
42913;DHT22;50720;54.324;18.558;2022-10-15T16:00:46;14.30;99.90
42913;DHT22;50720;54.324;18.558;2022-10-15T16:03:16;14.40;99.90
42913;DHT22;50720;54.324;18.558;2022-10-15T16:05:45;14.30;99.90
42913;DHT22;50720;54.324;18.558;2022-10-15T16:08:22;14.40;99.90
42913;DHT22;50720;54.324;18.558;2022-10-15T16:10:52;14.30;99.90